createdAt,value
2022-08-05T00:00:16.702Z,21.25
2022-08-05T00:02:50.882Z,21.23
2022-08-05T00:06:03.178Z,21.21
2022-08-05T00:08:32.740Z,21.15
2022-08-05T00:11:00.686Z,21.11
2022-08-05T00:13:38.906Z,21.08
2022-08-05T00:16:08.757Z,21.05
2022-08-05T00:18:38.002Z,21.00
2022-08-05T00:21:06.467Z,20.96
2022-08-05T00:23:45.850Z,20.96
2022-08-05T00:26:20.938Z,20.95
2022-08-05T00:28:50.536Z,20.93
2022-08-05T00:31:54.184Z,20.87
2022-08-05T00:34:53.196Z,20.85
2022-08-05T00:37:13.232Z,20.82
2022-08-05T00:39:44.263Z,20.81
2022-08-05T00:42:36.646Z,20.82
2022-08-05T00:45:05.467Z,20.72
2022-08-05T00:47:56.322Z,20.68
2022-08-05T00:50:25.309Z,20.64
2022-08-05T00:52:55.169Z,20.59
2022-08-05T00:55:23.297Z,20.55
2022-08-05T00:58:11.108Z,20.54
2022-08-05T01:00:39.654Z,20.51
2022-08-05T01:03:07.992Z,20.47
2022-08-05T01:05:35.430Z,20.47
2022-08-05T01:08:42.156Z,20.42
2022-08-05T01:10:58.095Z,20.41
2022-08-05T01:14:04.227Z,20.43
2022-08-05T01:16:48.729Z,20.40
2022-08-05T01:19:46.215Z,20.39
2022-08-05T01:22:31.811Z,20.37
2022-08-05T01:25:19.893Z,20.34
2022-08-05T01:27:55.539Z,20.31
2022-08-05T01:30:34.121Z,20.26
2022-08-05T01:33:08.056Z,20.24
2022-08-05T01:35:50.989Z,20.24
2022-08-05T01:38:27.467Z,20.17
2022-08-05T01:40:59.686Z,20.06
2022-08-05T01:43:28.081Z,19.94
2022-08-05T01:45:57.043Z,19.84
2022-08-05T01:48:29.851Z,19.75
2022-08-05T01:51:00.117Z,19.67
2022-08-05T01:53:57.246Z,19.57
2022-08-05T01:58:11.651Z,19.53
2022-08-05T01:59:20.118Z,19.49
2022-08-05T02:01:48.680Z,19.50
2022-08-05T02:04:18.396Z,19.46
2022-08-05T02:06:45.729Z,19.43
2022-08-05T02:09:16.470Z,19.37
2022-08-05T02:11:52.680Z,19.35
2022-08-05T02:14:32.402Z,19.31
2022-08-05T02:17:04.059Z,19.37
2022-08-05T02:19:36.371Z,19.49
2022-08-05T02:22:25.339Z,19.47
2022-08-05T02:24:55.865Z,19.40
2022-08-05T02:27:30.151Z,19.35
2022-08-05T02:30:12.376Z,19.30
2022-08-05T02:32:41.635Z,19.29
2022-08-05T02:35:13.563Z,19.25
2022-08-05T02:37:42.770Z,19.22
2022-08-05T02:40:16.556Z,19.19
2022-08-05T02:42:44.788Z,19.17
2022-08-05T02:45:21.311Z,19.13
2022-08-05T02:48:07.091Z,19.11
2022-08-05T02:50:43.824Z,19.12
2022-08-05T02:53:18.675Z,19.12
2022-08-05T02:55:52.102Z,19.09
2022-08-05T02:58:23.277Z,19.07
2022-08-05T03:00:58.984Z,18.99
2022-08-05T03:03:27.893Z,18.92
2022-08-05T03:06:54.728Z,18.93
2022-08-05T03:08:52.174Z,18.90
2022-08-05T03:11:55.561Z,18.89
2022-08-05T03:14:08.517Z,18.80
2022-08-05T03:16:40.675Z,18.74
2022-08-05T03:19:17.441Z,18.69
2022-08-05T03:21:55.374Z,18.67
2022-08-05T03:24:29.511Z,18.67
2022-08-05T03:27:00.867Z,18.65
2022-08-05T03:29:44.613Z,18.59
2022-08-05T03:32:15.384Z,18.60
2022-08-05T03:34:50.553Z,18.64
2022-08-05T03:37:19.689Z,18.61
2022-08-05T03:40:01.124Z,18.57
2022-08-05T03:42:32.276Z,18.56
2022-08-05T03:45:01.893Z,18.55
2022-08-05T03:47:49.363Z,18.56
2022-08-05T03:50:16.775Z,18.60
2022-08-05T03:55:49.952Z,18.60
2022-08-05T03:56:11.897Z,18.58
2022-08-05T03:58:44.869Z,18.61
2022-08-05T04:01:13.270Z,18.58
2022-08-05T04:04:05.402Z,18.55
2022-08-05T04:06:30.607Z,18.54
2022-08-05T04:08:58.765Z,18.60
2022-08-05T04:11:47.075Z,18.63
2022-08-05T04:14:17.870Z,18.61
2022-08-05T04:16:45.603Z,18.61
2022-08-05T04:19:13.366Z,18.64
2022-08-05T04:22:08.824Z,18.67
2022-08-05T04:24:28.415Z,18.63
2022-08-05T04:26:58.229Z,18.67
2022-08-05T04:29:27.252Z,18.75
2022-08-05T04:31:56.881Z,18.85
2022-08-05T04:34:32.968Z,18.90
2022-08-05T04:37:02.985Z,18.98
2022-08-05T04:39:31.367Z,19.04
2022-08-05T04:41:59.509Z,19.08
2022-08-05T04:44:30.298Z,19.12
2022-08-05T04:47:09.726Z,19.20
2022-08-05T04:50:01.331Z,19.30
2022-08-05T04:52:28.273Z,19.41
2022-08-05T04:54:57.294Z,19.51
2022-08-05T04:57:28.531Z,19.59
2022-08-05T04:59:58.497Z,19.65
2022-08-05T05:02:36.795Z,19.72
2022-08-05T05:05:16.533Z,19.80
2022-08-05T05:07:56.632Z,19.87
2022-08-05T05:10:29.627Z,19.98
2022-08-05T05:12:57.791Z,20.09
2022-08-05T05:15:57.396Z,20.18
2022-08-05T05:18:15.280Z,20.33
2022-08-05T05:20:56.090Z,20.47
2022-08-05T05:23:25.879Z,20.59
2022-08-05T05:25:53.149Z,20.73
2022-08-05T05:28:20.874Z,20.85
2022-08-05T05:30:49.563Z,20.98
2022-08-05T05:33:17.711Z,21.10
2022-08-05T05:35:50.817Z,21.20
2022-08-05T05:38:22.200Z,21.34
2022-08-05T05:40:54.379Z,21.41
2022-08-05T05:43:56.430Z,21.50
2022-08-05T05:46:17.306Z,21.61
2022-08-05T05:48:48.323Z,21.69
2022-08-05T05:51:22.989Z,21.83
2022-08-05T05:53:57.392Z,21.99
2022-08-05T05:56:31.507Z,22.13
2022-08-05T05:59:03.452Z,22.20
2022-08-05T06:01:38.026Z,22.28
2022-08-05T06:04:07.557Z,22.38
2022-08-05T06:06:35.503Z,22.53
2022-08-05T06:09:04.220Z,22.65
2022-08-05T06:11:32.025Z,22.70
2022-08-05T06:14:00.375Z,22.75
2022-08-05T06:16:36.932Z,22.76
2022-08-05T06:19:07.321Z,22.98
2022-08-05T06:24:12.050Z,23.26
2022-08-05T06:26:51.241Z,23.42
2022-08-05T06:29:23.604Z,23.57
2022-08-05T06:32:24.836Z,23.76
2022-08-05T06:34:56.815Z,23.89
2022-08-05T06:37:56.355Z,24.07
2022-08-05T06:40:13.978Z,24.30
2022-08-05T06:42:45.852Z,24.42
2022-08-05T06:45:20.679Z,24.50
2022-08-05T06:48:36.593Z,24.62
2022-08-05T06:50:36.003Z,24.76
2022-08-05T06:53:11.244Z,24.87
2022-08-05T06:55:42.007Z,25.01
2022-08-05T06:58:29.928Z,25.17
2022-08-05T07:01:01.172Z,25.36
2022-08-05T07:03:32.722Z,25.51
2022-08-05T07:06:05.818Z,25.63
2022-08-05T07:08:47.793Z,25.71
2022-08-05T07:11:22.183Z,25.86
2022-08-05T07:14:20.630Z,26.04
2022-08-05T07:18:00.693Z,26.16
2022-08-05T07:22:35.921Z,26.38
2022-08-05T07:25:23.090Z,26.49
2022-08-05T07:27:57.228Z,26.57
2022-08-05T07:30:34.724Z,26.63
2022-08-05T07:33:16.587Z,26.71
2022-08-05T07:36:05.387Z,26.84
2022-08-05T07:38:43.694Z,26.99
2022-08-05T07:42:13.475Z,27.13
2022-08-05T07:44:18.653Z,27.26
2022-08-05T07:46:49.259Z,27.41
2022-08-05T07:49:18.133Z,27.52
2022-08-05T07:51:54.038Z,27.71
2022-08-05T07:54:30.690Z,27.83
2022-08-05T07:57:14.675Z,27.92
2022-08-05T07:59:46.899Z,28.09
2022-08-05T08:02:17.558Z,28.21
2022-08-05T08:04:46.361Z,28.36
2022-08-05T08:07:14.092Z,28.41
2022-08-05T08:09:43.016Z,28.45
2022-08-05T08:12:29.671Z,28.55
2022-08-05T08:15:02.202Z,28.69
2022-08-05T08:17:31.160Z,28.83
2022-08-05T08:20:43.428Z,28.96
2022-08-05T08:22:50.970Z,29.11
2022-08-05T08:25:26.378Z,29.25
2022-08-05T08:28:03.223Z,29.36
2022-08-05T08:30:40.783Z,29.49
2022-08-05T08:33:15.344Z,29.75
2022-08-05T08:35:52.957Z,29.89
2022-08-05T08:38:35.653Z,30.00
2022-08-05T08:41:07.349Z,30.04
2022-08-05T08:45:19.418Z,30.07
2022-08-05T08:46:24.029Z,30.09
2022-08-05T08:49:06.077Z,30.10
2022-08-05T08:52:02.929Z,30.15
2022-08-05T08:54:30.614Z,30.20
2022-08-05T08:56:59.597Z,30.28
2022-08-05T08:59:27.632Z,30.44
2022-08-05T09:02:02.180Z,30.64
2022-08-05T09:04:30.464Z,30.78
2022-08-05T09:06:58.428Z,30.83
2022-08-05T09:09:32.459Z,30.96
2022-08-05T09:12:19.802Z,31.05
2022-08-05T09:14:57.231Z,31.15
2022-08-05T09:17:40.639Z,31.18
2022-08-05T09:20:09.528Z,31.33
2022-08-05T09:22:55.520Z,31.49
2022-08-05T09:26:03.111Z,31.61
2022-08-05T09:28:32.524Z,31.62
2022-08-05T09:32:38.742Z,31.62
2022-08-05T09:34:10.733Z,31.73
2022-08-05T09:36:56.369Z,31.84
2022-08-05T09:39:27.805Z,31.92
2022-08-05T09:42:23.090Z,32.05
2022-08-05T09:44:57.153Z,32.16
2022-08-05T09:47:36.559Z,32.24
2022-08-05T09:50:37.684Z,32.28
2022-08-05T09:53:06.272Z,32.34
2022-08-05T09:55:58.062Z,32.47
2022-08-05T09:58:24.622Z,32.62
2022-08-05T10:01:01.001Z,32.70
2022-08-05T10:03:56.533Z,32.84
2022-08-05T10:06:19.417Z,32.97
2022-08-05T10:08:53.791Z,33.00
2022-08-05T10:11:21.446Z,33.01
2022-08-05T10:13:54.511Z,33.14
2022-08-05T10:16:31.093Z,33.14
2022-08-05T10:18:59.934Z,33.04
2022-08-05T10:21:35.269Z,33.10
2022-08-05T10:24:10.727Z,33.15
2022-08-05T10:26:49.115Z,33.16
2022-08-05T10:30:06.065Z,33.27
2022-08-05T10:32:53.603Z,33.38
2022-08-05T10:35:01.098Z,33.55
2022-08-05T10:37:40.012Z,33.78
2022-08-05T10:40:18.962Z,33.75
2022-08-05T10:42:50.226Z,33.80
2022-08-05T10:45:41.834Z,33.89
2022-08-05T10:48:29.848Z,33.87
2022-08-05T10:51:21.913Z,33.88
2022-08-05T10:54:23.058Z,33.69
2022-08-05T10:56:52.810Z,33.78
2022-08-05T11:00:02.546Z,33.93
2022-08-05T11:02:37.821Z,33.97
2022-08-05T11:05:07.201Z,34.04
2022-08-05T11:08:02.405Z,34.03
2022-08-05T11:10:33.154Z,34.07
2022-08-05T11:13:01.165Z,34.02
2022-08-05T11:15:59.121Z,34.03
2022-08-05T11:18:24.591Z,34.06
2022-08-05T11:20:52.339Z,34.11
2022-08-05T11:23:33.422Z,34.25
2022-08-05T11:26:05.670Z,34.26
2022-08-05T11:28:36.206Z,34.18
2022-08-05T11:31:06.421Z,34.17
2022-08-05T11:33:46.459Z,34.09
2022-08-05T11:36:14.964Z,34.15
2022-08-05T11:38:46.117Z,34.34
2022-08-05T11:41:58.175Z,34.32
2022-08-05T11:44:21.748Z,34.46
2022-08-05T11:47:14.149Z,34.43
2022-08-05T11:49:49.843Z,34.47
2022-08-05T11:52:29.426Z,34.46
2022-08-05T11:54:58.165Z,34.63
2022-08-05T11:58:08.046Z,34.78
2022-08-05T12:00:29.210Z,34.77
2022-08-05T12:02:57.846Z,34.83
2022-08-05T12:05:32.295Z,34.89
2022-08-05T12:08:10.137Z,34.85
2022-08-05T12:10:45.302Z,34.94
2022-08-05T12:13:16.955Z,34.92
2022-08-05T12:15:49.766Z,34.93
2022-08-05T12:18:18.242Z,34.90
2022-08-05T12:20:47.962Z,34.94
2022-08-05T12:23:16.659Z,34.97
2022-08-05T12:25:53.858Z,34.89
2022-08-05T12:28:31.186Z,34.92
2022-08-05T12:31:02.389Z,34.99
2022-08-05T12:33:36.709Z,34.97
2022-08-05T12:36:07.008Z,34.95
2022-08-05T12:38:36.990Z,35.01
2022-08-05T12:41:12.296Z,35.12
2022-08-05T12:43:50.448Z,35.16
2022-08-05T12:46:26.440Z,35.18
2022-08-05T12:49:00.599Z,35.14
2022-08-05T12:52:13.013Z,35.06
2022-08-05T12:54:29.375Z,35.08
2022-08-05T12:56:57.898Z,35.18
2022-08-05T12:59:46.679Z,35.36
2022-08-05T13:02:16.471Z,35.41
2022-08-05T13:04:52.514Z,35.45
2022-08-05T13:07:56.081Z,35.52
2022-08-05T13:10:11.802Z,35.62
2022-08-05T13:12:42.712Z,35.69
2022-08-05T13:15:42.146Z,35.77
2022-08-05T13:18:19.756Z,35.86
2022-08-05T13:20:49.046Z,35.94
2022-08-05T13:23:22.040Z,35.92
2022-08-05T13:25:59.627Z,35.93
2022-08-05T13:28:28.927Z,35.78
2022-08-05T13:30:57.190Z,35.65
2022-08-05T13:34:22.648Z,35.53
2022-08-05T13:36:14.427Z,35.40
2022-08-05T13:38:42.943Z,35.40
2022-08-05T13:41:11.339Z,35.36
2022-08-05T13:43:44.303Z,35.42
2022-08-05T13:46:13.818Z,35.38
2022-08-05T13:48:58.323Z,35.37
2022-08-05T13:51:28.766Z,35.38
2022-08-05T13:53:56.533Z,35.35
2022-08-05T13:56:26.407Z,35.40
2022-08-05T13:58:53.985Z,35.30
2022-08-05T14:01:27.408Z,35.30
2022-08-05T14:04:22.352Z,35.19
2022-08-05T14:07:11.984Z,35.28
2022-08-05T14:09:46.154Z,35.30
2022-08-05T14:12:17.540Z,35.29
2022-08-05T14:14:59.250Z,35.20
2022-08-05T14:17:26.643Z,35.28
2022-08-05T14:20:00.878Z,35.39
2022-08-05T14:22:30.505Z,35.51
2022-08-05T14:25:02.155Z,35.56
2022-08-05T14:27:33.531Z,35.52
2022-08-05T14:30:01.835Z,35.46
2022-08-05T14:32:31.852Z,35.42
2022-08-05T14:34:59.353Z,35.41
2022-08-05T14:37:45.322Z,35.34
2022-08-05T14:40:17.052Z,35.30
2022-08-05T14:42:44.466Z,35.33
2022-08-05T14:45:11.737Z,35.41
2022-08-05T14:48:02.588Z,35.44
2022-08-05T14:50:26.293Z,35.44
2022-08-05T14:52:58.485Z,35.46
2022-08-05T14:55:28.728Z,35.44
2022-08-05T14:58:12.225Z,35.46
2022-08-05T15:00:59.664Z,35.44
2022-08-05T15:03:32.997Z,35.42
2022-08-05T15:06:08.410Z,35.42
2022-08-05T15:08:59.517Z,35.48
2022-08-05T15:11:51.844Z,35.52
2022-08-05T15:14:33.425Z,35.41
2022-08-05T15:17:04.214Z,35.37
2022-08-05T15:19:32.098Z,35.29
2022-08-05T15:22:01.295Z,35.31
2022-08-05T15:24:29.502Z,35.31
2022-08-05T15:26:57.137Z,35.43
2022-08-05T15:29:30.092Z,35.50
2022-08-05T15:32:03.166Z,35.43
2022-08-05T15:34:32.166Z,35.51
2022-08-05T15:37:06.256Z,35.52
2022-08-05T15:41:02.714Z,35.62
2022-08-05T15:42:53.705Z,35.59
2022-08-05T15:45:16.503Z,35.67
2022-08-05T15:47:46.384Z,35.74
2022-08-05T15:50:16.012Z,35.86
2022-08-05T15:52:52.709Z,35.87
2022-08-05T15:55:24.574Z,35.86
2022-08-05T15:57:52.611Z,35.90
2022-08-05T16:00:32.759Z,35.96
2022-08-05T16:03:08.009Z,36.00
2022-08-05T16:05:35.372Z,35.96
2022-08-05T16:08:06.330Z,36.03
2022-08-05T16:10:33.646Z,36.15
2022-08-05T16:13:00.926Z,36.42
2022-08-05T16:15:32.255Z,36.54
2022-08-05T16:18:00.074Z,36.60
2022-08-05T16:20:27.931Z,36.98
2022-08-05T16:22:55.430Z,37.26
2022-08-05T16:25:34.180Z,37.50
2022-08-05T16:28:06.537Z,37.58
2022-08-05T16:30:37.248Z,38.10
2022-08-05T16:33:04.570Z,38.56
2022-08-05T16:35:33.558Z,38.95
2022-08-05T16:38:18.848Z,39.49
2022-08-05T16:40:55.262Z,39.60
2022-08-05T16:43:24.127Z,39.43
2022-08-05T16:46:04.704Z,39.35
2022-08-05T16:48:36.080Z,39.37
2022-08-05T16:51:03.956Z,39.40
2022-08-05T16:54:06.167Z,39.33
2022-08-05T16:56:24.851Z,39.20
2022-08-05T16:58:52.174Z,39.14
2022-08-05T17:01:19.594Z,38.57
2022-08-05T17:03:47.189Z,37.66
2022-08-05T17:06:16.594Z,36.85
2022-08-05T17:08:53.478Z,36.02
2022-08-05T17:11:23.824Z,35.36
2022-08-05T17:14:00.509Z,35.03
2022-08-05T17:16:35.992Z,34.67
2022-08-05T17:19:09.589Z,34.35
2022-08-05T17:21:39.742Z,34.07
2022-08-05T17:24:18.520Z,33.84
2022-08-05T17:26:57.848Z,33.60
2022-08-05T17:29:33.813Z,33.45
2022-08-05T17:32:11.763Z,33.23
2022-08-05T17:34:48.527Z,33.05
2022-08-05T17:37:40.388Z,32.84
2022-08-05T17:40:10.617Z,32.67
2022-08-05T17:42:41.731Z,32.57
2022-08-05T17:45:20.482Z,32.45
2022-08-05T17:47:53.512Z,32.33
2022-08-05T17:50:28.459Z,32.20
2022-08-05T17:52:58.966Z,32.07
2022-08-05T17:55:27.398Z,31.96
2022-08-05T17:58:02.290Z,31.88
2022-08-05T18:00:29.967Z,31.81
2022-08-05T18:02:57.348Z,31.74
2022-08-05T18:05:28.214Z,31.64
2022-08-05T18:08:02.557Z,31.45
2022-08-05T18:10:32.231Z,31.27
2022-08-05T18:13:01.956Z,31.07
2022-08-05T18:15:35.136Z,30.89
2022-08-05T18:18:11.074Z,30.74
2022-08-05T18:20:38.908Z,30.61
2022-08-05T18:23:11.192Z,30.47
2022-08-05T18:25:45.531Z,30.34
2022-08-05T18:28:16.655Z,30.23
2022-08-05T18:30:45.114Z,30.15
2022-08-05T18:33:13.786Z,30.05
2022-08-05T18:36:01.154Z,29.96
2022-08-05T18:38:30.655Z,29.83
2022-08-05T18:41:55.688Z,29.73
2022-08-05T18:43:48.935Z,29.58
2022-08-05T18:46:20.053Z,29.43
2022-08-05T18:48:51.943Z,29.27
2022-08-05T18:52:05.669Z,29.09
2022-08-05T18:54:26.175Z,28.89
2022-08-05T18:56:57.119Z,28.76
2022-08-05T18:59:43.994Z,28.63
2022-08-05T19:02:38.036Z,28.53
2022-08-05T19:05:02.769Z,28.44
2022-08-05T19:07:50.266Z,28.32
2022-08-05T19:10:26.657Z,28.22
2022-08-05T19:12:58.131Z,28.15
2022-08-05T19:15:57.766Z,28.06
2022-08-05T19:18:20.723Z,28.00
2022-08-05T19:20:52.140Z,27.93
2022-08-05T19:24:03.339Z,27.87
2022-08-05T19:26:08.509Z,27.78
2022-08-05T19:28:43.922Z,27.68
2022-08-05T19:31:13.322Z,27.62
2022-08-05T19:33:55.711Z,27.59
2022-08-05T19:36:27.157Z,27.52
2022-08-05T19:38:58.954Z,27.47
2022-08-05T19:42:06.486Z,27.42
2022-08-05T19:44:17.168Z,27.39
2022-08-05T19:46:46.065Z,27.37
2022-08-05T19:49:17.256Z,27.33
2022-08-05T19:52:09.022Z,27.30
2022-08-05T19:54:34.537Z,27.25
2022-08-05T19:57:06.540Z,27.21
2022-08-05T19:59:54.564Z,27.16
2022-08-05T20:02:26.242Z,27.07
2022-08-05T20:04:59.054Z,27.02
2022-08-05T20:07:46.445Z,26.96
2022-08-05T20:10:15.877Z,26.88
2022-08-05T20:12:47.833Z,26.80
2022-08-05T20:15:23.261Z,26.73
2022-08-05T20:18:10.689Z,26.65
2022-08-05T20:20:52.175Z,26.58
2022-08-05T20:23:23.680Z,26.50
2022-08-05T20:26:16.451Z,26.43
2022-08-05T20:28:45.697Z,26.33
2022-08-05T20:31:12.980Z,26.26
2022-08-05T20:33:42.592Z,26.19
2022-08-05T20:36:11.127Z,26.11
2022-08-05T20:38:40.816Z,26.04
2022-08-05T20:41:24.271Z,25.97
2022-08-05T20:44:00.478Z,25.91
2022-08-05T20:46:30.169Z,25.83
2022-08-05T20:48:57.450Z,25.77
2022-08-05T20:51:24.726Z,25.70
2022-08-05T20:53:56.353Z,25.67
2022-08-05T20:56:28.725Z,25.63
2022-08-05T20:58:59.976Z,25.59
2022-08-05T21:01:39.138Z,25.57
2022-08-05T21:04:12.306Z,25.54
2022-08-05T21:06:45.632Z,25.50
2022-08-05T21:09:14.950Z,25.47
2022-08-05T21:12:09.643Z,25.44
2022-08-05T21:14:34.910Z,25.38
2022-08-05T21:17:05.127Z,25.25
2022-08-05T21:19:46.789Z,25.12
2022-08-05T21:22:21.746Z,25.00
2022-08-05T21:24:52.369Z,24.90
2022-08-05T21:27:24.647Z,24.82
2022-08-05T21:29:54.012Z,24.75
2022-08-05T21:32:23.688Z,24.68
2022-08-05T21:34:55.975Z,24.61
2022-08-05T21:37:41.061Z,24.51
2022-08-05T21:40:13.148Z,24.41
2022-08-05T21:42:44.446Z,24.33
2022-08-05T21:45:24.929Z,24.28
2022-08-05T21:47:56.649Z,24.23
2022-08-05T21:50:25.664Z,24.19
2022-08-05T21:52:53.498Z,24.16
2022-08-05T21:56:00.753Z,24.17
2022-08-05T21:58:10.228Z,24.16
2022-08-05T22:00:39.989Z,24.11
2022-08-05T22:03:10.027Z,24.07
2022-08-05T22:05:48.600Z,24.02
2022-08-05T22:08:22.239Z,23.99
2022-08-05T22:10:51.594Z,23.97
2022-08-05T22:14:19.511Z,23.93
2022-08-05T22:16:32.242Z,23.89
2022-08-05T22:18:58.792Z,23.82
2022-08-05T22:21:26.322Z,23.74
2022-08-05T22:24:13.224Z,23.72
2022-08-05T22:27:17.678Z,23.70
2022-08-05T22:29:45.931Z,23.69
2022-08-05T22:32:17.478Z,23.61
2022-08-05T22:34:45.817Z,23.55
2022-08-05T22:37:13.140Z,23.49
2022-08-05T22:39:40.572Z,23.45
2022-08-05T22:42:12.653Z,23.40
2022-08-05T22:44:47.093Z,23.31
2022-08-05T22:47:29.635Z,23.28
2022-08-05T22:50:20.045Z,23.27
2022-08-05T22:52:46.269Z,23.18
2022-08-05T22:57:55.092Z,23.10
2022-08-05T23:00:23.541Z,23.06
2022-08-05T23:02:53.243Z,23.03
2022-08-05T23:05:22.349Z,22.99
2022-08-05T23:07:51.055Z,22.96
2022-08-05T23:10:20.832Z,22.91
2022-08-05T23:12:54.227Z,22.85
2022-08-05T23:15:26.902Z,22.77
2022-08-05T23:18:01.458Z,22.75
2022-08-05T23:20:30.651Z,22.70
2022-08-05T23:22:58.682Z,22.70
2022-08-05T23:25:53.524Z,22.68
2022-08-05T23:28:15.856Z,22.63
2022-08-05T23:30:53.415Z,22.59
2022-08-05T23:33:26.322Z,22.56
2022-08-05T23:36:10.593Z,22.46
2022-08-05T23:38:38.234Z,22.41
2022-08-05T23:41:05.747Z,22.35
2022-08-05T23:44:05.366Z,22.32
2022-08-05T23:46:22.129Z,22.28
2022-08-05T23:49:00.213Z,22.26
2022-08-05T23:52:01.966Z,22.24
2022-08-05T23:54:36.518Z,22.19
2022-08-05T23:57:06.362Z,22.15
2022-08-05T23:59:37.604Z,22.12
